Time;durP1;ratioP1;P1;durP2;ratioP2;P2;SDS_P1;SDS_P2;PMS_P1;PMS_P2;Temp;Humidity;BMP_temperature;BMP_pressure;BME280_temperature;BME280_humidity;BME280_pressure;Samples;Min_cycle;Max_cycle;Signal;HPM_P1;HPM_P2
2023/05/05 00:01:31;;;;;;;;;;;13.30;99.90;;;;;;5177791;27;19929;-41
2023/05/05 00:03:57;;;;;;;;;;;13.30;99.90;;;;;;5178792;27;19910;-42
2023/05/05 00:06:23;;;;;;;;;;;13.30;99.90;;;;;;5178335;27;20280;-42
2023/05/05 00:08:48;;;;;;;;;;;13.30;99.90;;;;;;5177679;27;20261;-41
2023/05/05 00:11:14;;;;;;;;;;;13.30;99.90;;;;;;5177666;27;19906;-41
2023/05/05 00:13:39;;;;;;;;;;;13.20;99.90;;;;;;5177472;27;19907;-43
2023/05/05 00:16:05;;;;;;;;;;;13.20;99.90;;;;;;5176907;27;19959;-42
2023/05/05 00:18:32;;;;;;;;;;;13.20;99.90;;;;;;5177468;27;19907;-41
2023/05/05 00:20:58;;;;;;;;;;;13.20;99.90;;;;;;5178223;27;19959;-42
2023/05/05 00:23:23;;;;;;;;;;;13.10;99.90;;;;;;5177621;27;19906;-42
2023/05/05 00:25:48;;;;;;;;;;;13.10;99.90;;;;;;5159505;27;19998;-41
2023/05/05 00:28:14;;;;;;;;;;;13.10;99.90;;;;;;5177656;27;19907;-42
2023/05/05 00:30:40;;;;;;;;;;;13.10;99.90;;;;;;5177900;27;19922;-41
2023/05/05 00:33:05;;;;;;;;;;;13.10;99.90;;;;;;5177953;27;20302;-43
2023/05/05 00:35:31;;;;;;;;;;;13.10;99.90;;;;;;5177067;27;19950;-44
2023/05/05 00:37:57;;;;;;;;;;;13.10;99.90;;;;;;5177625;27;19914;-41
2023/05/05 00:40:22;;;;;;;;;;;13.00;99.90;;;;;;5177804;27;19946;-42
2023/05/05 00:42:51;;;;;;;;;;;13.00;99.90;;;;;;5177058;27;19907;-42
2023/05/05 00:45:17;;;;;;;;;;;13.00;99.90;;;;;;5177691;27;19918;-42
2023/05/05 00:47:45;;;;;;;;;;;13.00;99.90;;;;;;5177785;27;19914;-41
2023/05/05 00:50:12;;;;;;;;;;;13.00;99.90;;;;;;5176719;27;19918;-42
2023/05/05 00:52:37;;;;;;;;;;;13.00;99.90;;;;;;5177670;27;19907;-42
2023/05/05 00:55:04;;;;;;;;;;;13.00;99.90;;;;;;5177640;27;19914;-42
2023/05/05 00:57:31;;;;;;;;;;;12.90;99.90;;;;;;5176734;27;19933;-42
2023/05/05 00:59:57;;;;;;;;;;;12.90;99.90;;;;;;5177376;27;19957;-42
2023/05/05 01:02:23;;;;;;;;;;;12.90;99.90;;;;;;5177617;27;19907;-42
2023/05/05 01:04:48;;;;;;;;;;;12.90;99.90;;;;;;5176724;27;20017;-43
2023/05/05 01:07:32;;;;;;;;;;;12.80;99.90;;;;;;5177290;27;19917;-44
2023/05/05 01:10:05;;;;;;;;;;;12.80;99.90;;;;;;5177425;27;19914;-41
2023/05/05 01:12:33;;;;;;;;;;;12.80;99.90;;;;;;5176131;27;19959;-41
2023/05/05 01:15:12;;;;;;;;;;;12.80;99.90;;;;;;5176914;27;19911;-42
2023/05/05 01:17:40;;;;;;;;;;;12.80;99.90;;;;;;5176531;27;20686;-41
2023/05/05 01:20:06;;;;;;;;;;;12.80;99.90;;;;;;5177332;27;19975;-41
2023/05/05 01:22:40;;;;;;;;;;;12.80;99.90;;;;;;5177043;27;20377;-41
2023/05/05 01:25:05;;;;;;;;;;;12.80;99.90;;;;;;5176435;27;19943;-41
2023/05/05 01:27:50;;;;;;;;;;;12.80;99.90;;;;;;5177006;27;19906;-43
2023/05/05 01:30:30;;;;;;;;;;;12.80;99.90;;;;;;5176832;27;20373;-44
2023/05/05 01:33:17;;;;;;;;;;;12.70;99.90;;;;;;5175922;27;19919;-41
2023/05/05 01:35:45;;;;;;;;;;;12.70;99.90;;;;;;5176858;27;20410;-42
2023/05/05 01:38:15;;;;;;;;;;;12.80;99.90;;;;;;5176523;27;20001;-43
2023/05/05 01:40:43;;;;;;;;;;;12.70;99.90;;;;;;5175961;27;20338;-41
2023/05/05 01:43:11;;;;;;;;;;;12.70;99.90;;;;;;5176827;27;19934;-42
2023/05/05 01:45:37;;;;;;;;;;;12.70;99.90;;;;;;5175746;27;19906;-42
2023/05/05 01:48:04;;;;;;;;;;;12.80;99.90;;;;;;5176696;27;19987;-42
2023/05/05 01:50:29;;;;;;;;;;;12.80;99.90;;;;;;5176315;27;19918;-41
2023/05/05 01:52:55;;;;;;;;;;;12.80;99.90;;;;;;5175801;27;19910;-44
2023/05/05 01:55:23;;;;;;;;;;;12.80;99.90;;;;;;5176634;27;19913;-43
2023/05/05 01:57:50;;;;;;;;;;;12.80;99.90;;;;;;5176362;27;20388;-43
2023/05/05 02:00:17;;;;;;;;;;;12.80;99.90;;;;;;5175659;27;19942;-41
2023/05/05 02:02:46;;;;;;;;;;;12.80;99.90;;;;;;5176305;27;19907;-41
2023/05/05 02:05:13;;;;;;;;;;;12.80;99.90;;;;;;5176263;27;20361;-41
2023/05/05 02:07:38;;;;;;;;;;;12.80;99.90;;;;;;5175035;27;19914;-43
2023/05/05 02:10:04;;;;;;;;;;;12.80;99.90;;;;;;5176273;27;20422;-42
2023/05/05 02:12:30;;;;;;;;;;;12.90;99.90;;;;;;5175892;27;19918;-43
2023/05/05 02:14:58;;;;;;;;;;;12.90;99.90;;;;;;5175199;27;19911;-41
2023/05/05 02:17:25;;;;;;;;;;;12.90;99.90;;;;;;5175643;27;19914;-42
2023/05/05 02:19:51;;;;;;;;;;;12.90;99.90;;;;;;5175894;27;19911;-41
2023/05/05 02:22:17;;;;;;;;;;;12.90;99.90;;;;;;5175271;27;19907;-42
2023/05/05 02:24:43;;;;;;;;;;;12.90;99.90;;;;;;5175956;27;19959;-42
2023/05/05 02:27:10;;;;;;;;;;;12.80;99.90;;;;;;5175483;27;19915;-42
2023/05/05 02:29:40;;;;;;;;;;;12.90;99.90;;;;;;5174800;27;20372;-41
2023/05/05 02:32:09;;;;;;;;;;;12.80;99.90;;;;;;5175722;27;19918;-41
2023/05/05 02:34:36;;;;;;;;;;;12.90;99.90;;;;;;5175477;27;19910;-41
2023/05/05 02:37:04;;;;;;;;;;;12.90;99.90;;;;;;5175033;27;19906;-41
2023/05/05 02:39:31;;;;;;;;;;;12.90;99.90;;;;;;5175495;27;20365;-41
2023/05/05 02:42:01;;;;;;;;;;;12.90;99.90;;;;;;5175025;27;19915;-40
2023/05/05 02:44:27;;;;;;;;;;;12.80;99.90;;;;;;5175490;27;20021;-42
2023/05/05 02:46:53;;;;;;;;;;;12.80;99.90;;;;;;5175272;27;19926;-42
2023/05/05 02:49:19;;;;;;;;;;;12.80;99.90;;;;;;5174828;27;19921;-41
2023/05/05 02:51:44;;;;;;;;;;;12.80;99.90;;;;;;5175491;27;20377;-41
2023/05/05 02:54:10;;;;;;;;;;;12.80;99.90;;;;;;5175446;27;20388;-41
2023/05/05 02:56:39;;;;;;;;;;;12.80;99.90;;;;;;5174563;27;20345;-41
2023/05/05 02:59:17;;;;;;;;;;;12.70;99.90;;;;;;5175330;27;19907;-43
2023/05/05 03:01:49;;;;;;;;;;;12.70;99.90;;;;;;5175236;27;19963;-41
2023/05/05 03:04:18;;;;;;;;;;;12.70;99.90;;;;;;5174633;27;19907;-42
2023/05/05 03:06:46;;;;;;;;;;;12.70;99.90;;;;;;5175222;27;19911;-42
2023/05/05 03:09:14;;;;;;;;;;;12.70;99.90;;;;;;5175277;27;19915;-42
2023/05/05 03:11:40;;;;;;;;;;;12.70;99.90;;;;;;5174470;27;19907;-41
2023/05/05 03:14:10;;;;;;;;;;;12.70;99.90;;;;;;5175208;27;20261;-40
2023/05/05 03:16:36;;;;;;;;;;;12.70;99.90;;;;;;5174787;27;19994;-40
2023/05/05 03:19:02;;;;;;;;;;;12.70;99.90;;;;;;5174625;27;20322;-42
2023/05/05 03:21:28;;;;;;;;;;;12.70;99.90;;;;;;5175216;27;19907;-42
2023/05/05 03:23:54;;;;;;;;;;;12.70;99.90;;;;;;5174837;27;19907;-42
2023/05/05 03:26:19;;;;;;;;;;;12.70;99.90;;;;;;5174472;27;19953;-41
2023/05/05 03:28:45;;;;;;;;;;;12.60;99.90;;;;;;5174112;27;19939;-41
2023/05/05 03:31:10;;;;;;;;;;;12.60;99.90;;;;;;5176866;27;19943;-42
2023/05/05 03:33:36;;;;;;;;;;;12.60;99.90;;;;;;5178038;27;20379;-40
2023/05/05 03:36:01;;;;;;;;;;;12.50;99.90;;;;;;5178406;27;20093;-41
2023/05/05 03:38:27;;;;;;;;;;;12.50;99.90;;;;;;5178338;27;19906;-41
2023/05/05 03:40:52;;;;;;;;;;;12.40;99.90;;;;;;5179158;27;19907;-41
2023/05/05 03:43:18;;;;;;;;;;;12.40;99.90;;;;;;5179111;27;20269;-42
2023/05/05 03:45:44;;;;;;;;;;;12.40;99.90;;;;;;5178155;27;19907;-41
2023/05/05 03:48:09;;;;;;;;;;;12.40;99.90;;;;;;5178724;27;20399;-42
2023/05/05 03:50:35;;;;;;;;;;;12.30;99.90;;;;;;5178927;27;20006;-42
2023/05/05 03:53:00;;;;;;;;;;;12.30;99.90;;;;;;5177531;27;20284;-42
2023/05/05 03:55:26;;;;;;;;;;;12.30;99.90;;;;;;5178449;27;19929;-43
2023/05/05 03:57:51;;;;;;;;;;;12.30;99.90;;;;;;5178419;27;19907;-42
2023/05/05 04:00:17;;;;;;;;;;;12.30;99.90;;;;;;5158619;27;19914;-41
2023/05/05 04:02:42;;;;;;;;;;;12.30;99.90;;;;;;5178128;27;19907;-42
2023/05/05 04:05:08;;;;;;;;;;;12.30;99.90;;;;;;5178165;27;19906;-42
2023/05/05 04:07:33;;;;;;;;;;;12.30;99.90;;;;;;5176655;27;19911;-41
2023/05/05 04:09:59;;;;;;;;;;;12.30;99.90;;;;;;5177030;27;20280;-41
2023/05/05 04:12:24;;;;;;;;;;;12.30;99.90;;;;;;5177023;27;19911;-42
2023/05/05 04:14:50;;;;;;;;;;;12.30;99.90;;;;;;5176107;27;19914;-42
2023/05/05 04:17:15;;;;;;;;;;;12.30;99.90;;;;;;5177206;27;19948;-43
2023/05/05 04:19:41;;;;;;;;;;;12.30;99.90;;;;;;5177938;27;19995;-41
2023/05/05 04:22:06;;;;;;;;;;;12.30;99.90;;;;;;5177187;27;19914;-42
2023/05/05 04:24:31;;;;;;;;;;;12.20;99.90;;;;;;5177523;27;19906;-42
2023/05/05 04:26:57;;;;;;;;;;;12.20;99.90;;;;;;5177301;27;19914;-42
2023/05/05 04:29:22;;;;;;;;;;;12.10;99.90;;;;;;5176815;27;19915;-41
2023/05/05 04:31:49;;;;;;;;;;;12.10;99.90;;;;;;5176697;27;19923;-41
2023/05/05 04:34:14;;;;;;;;;;;12.10;99.90;;;;;;5177312;27;20010;-42
2023/05/05 04:36:40;;;;;;;;;;;12.00;99.90;;;;;;5177175;27;19989;-44
2023/05/05 04:39:07;;;;;;;;;;;12.00;99.90;;;;;;5177633;27;20381;-42
2023/05/05 04:41:33;;;;;;;;;;;12.00;99.90;;;;;;5173548;27;20425;-41
2023/05/05 04:43:58;;;;;;;;;;;12.00;99.90;;;;;;5177346;27;19990;-41
2023/05/05 04:46:24;;;;;;;;;;;11.90;99.90;;;;;;5177169;27;19907;-42
2023/05/05 04:48:49;;;;;;;;;;;11.90;99.90;;;;;;5176367;27;19915;-41
2023/05/05 04:51:15;;;;;;;;;;;11.90;99.90;;;;;;5176326;27;20346;-44
2023/05/05 04:53:40;;;;;;;;;;;11.90;99.90;;;;;;5176890;27;19963;-42
2023/05/05 04:56:06;;;;;;;;;;;11.90;99.90;;;;;;5175999;27;19911;-42
2023/05/05 04:58:31;;;;;;;;;;;11.90;99.90;;;;;;5177389;27;20436;-42
2023/05/05 05:00:57;;;;;;;;;;;11.90;99.90;;;;;;5177223;27;19915;-41
2023/05/05 05:03:22;;;;;;;;;;;11.90;99.90;;;;;;5176763;27;19906;-41
2023/05/05 05:05:48;;;;;;;;;;;11.90;99.90;;;;;;5168138;27;19918;-41
2023/05/05 05:08:16;;;;;;;;;;;11.80;99.90;;;;;;5169001;27;19915;-41
2023/05/05 05:10:42;;;;;;;;;;;11.80;99.90;;;;;;5176177;27;19919;-42
2023/05/05 05:13:08;;;;;;;;;;;11.90;99.90;;;;;;5176719;27;19914;-41
2023/05/05 05:15:36;;;;;;;;;;;11.90;99.90;;;;;;5173026;27;20015;-42
2023/05/05 05:18:02;;;;;;;;;;;11.90;99.90;;;;;;5168174;27;19940;-42
2023/05/05 05:20:28;;;;;;;;;;;12.00;99.90;;;;;;5174471;27;19911;-41
2023/05/05 05:22:54;;;;;;;;;;;12.00;99.90;;;;;;5175570;27;19915;-41
2023/05/05 05:25:19;;;;;;;;;;;12.00;99.90;;;;;;5170612;27;20292;-41
2023/05/05 05:27:45;;;;;;;;;;;12.10;99.90;;;;;;5169451;27;20373;-41
2023/05/05 05:30:10;;;;;;;;;;;12.10;99.90;;;;;;5174875;27;19915;-42
2023/05/05 05:32:36;;;;;;;;;;;12.10;99.90;;;;;;5174487;27;20005;-42
2023/05/05 05:35:01;;;;;;;;;;;12.20;99.90;;;;;;5175521;27;19907;-41
2023/05/05 05:37:27;;;;;;;;;;;12.10;99.90;;;;;;5175600;27;19954;-43
2023/05/05 05:39:53;;;;;;;;;;;12.10;99.90;;;;;;5174512;27;20693;-42
2023/05/05 05:42:18;;;;;;;;;;;12.20;99.90;;;;;;5175405;27;19922;-41
2023/05/05 05:44:44;;;;;;;;;;;12.20;99.90;;;;;;5174415;27;20326;-41
2023/05/05 05:47:09;;;;;;;;;;;12.20;99.90;;;;;;5175059;27;19945;-42
2023/05/05 05:49:35;;;;;;;;;;;12.10;99.90;;;;;;5171535;27;20305;-43
2023/05/05 05:52:00;;;;;;;;;;;12.20;99.90;;;;;;5173262;27;19950;-41
2023/05/05 05:54:26;;;;;;;;;;;12.20;99.90;;;;;;5171411;27;19918;-41
2023/05/05 05:56:51;;;;;;;;;;;12.10;99.90;;;;;;5172831;27;20547;-41
2023/05/05 05:59:17;;;;;;;;;;;12.20;99.90;;;;;;5174115;27;19966;-43
2023/05/05 06:01:42;;;;;;;;;;;12.20;99.90;;;;;;5174923;27;20002;-44
2023/05/05 06:04:08;;;;;;;;;;;12.30;99.90;;;;;;5172642;27;20444;-42
2023/05/05 06:06:33;;;;;;;;;;;12.30;99.90;;;;;;5175270;27;19930;-41
2023/05/05 06:08:59;;;;;;;;;;;12.40;99.90;;;;;;5176042;27;19918;-43
2023/05/05 06:11:24;;;;;;;;;;;12.40;99.90;;;;;;5176216;27;20345;-43
2023/05/05 06:13:50;;;;;;;;;;;12.50;99.90;;;;;;5175242;27;19930;-42
2023/05/05 06:16:15;;;;;;;;;;;12.60;99.90;;;;;;5176059;27;19945;-43
2023/05/05 06:18:41;;;;;;;;;;;12.70;99.90;;;;;;5176037;27;20288;-42
2023/05/05 06:21:06;;;;;;;;;;;12.80;99.90;;;;;;5175410;27;20005;-42
2023/05/05 06:23:31;;;;;;;;;;;12.80;99.90;;;;;;5175901;27;19906;-43
2023/05/05 06:25:57;;;;;;;;;;;12.80;99.90;;;;;;5175946;27;19914;-42
2023/05/05 06:28:22;;;;;;;;;;;12.90;99.90;;;;;;5174906;27;20445;-42
2023/05/05 06:30:48;;;;;;;;;;;13.00;99.90;;;;;;5175303;27;19915;-42
2023/05/05 06:33:13;;;;;;;;;;;13.00;99.90;;;;;;5175498;27;19963;-43
2023/05/05 06:35:39;;;;;;;;;;;13.10;99.90;;;;;;5167509;27;19969;-45
2023/05/05 06:38:04;;;;;;;;;;;13.10;99.90;;;;;;5174316;27;20285;-43
2023/05/05 06:40:30;;;;;;;;;;;13.20;99.90;;;;;;5174061;27;19959;-43
2023/05/05 06:42:56;;;;;;;;;;;13.30;99.90;;;;;;5173701;27;20006;-43
2023/05/05 06:45:22;;;;;;;;;;;13.30;99.90;;;;;;5174221;27;19950;-42
2023/05/05 06:47:48;;;;;;;;;;;13.40;99.90;;;;;;5173982;27;19907;-41
2023/05/05 06:50:13;;;;;;;;;;;13.40;99.90;;;;;;5172879;27;19918;-41
2023/05/05 06:52:40;;;;;;;;;;;13.50;99.90;;;;;;5173764;27;19964;-42
2023/05/05 06:55:05;;;;;;;;;;;13.50;99.90;;;;;;5171870;27;19911;-44
2023/05/05 06:57:31;;;;;;;;;;;13.50;99.90;;;;;;5172160;27;19971;-42
2023/05/05 06:59:56;;;;;;;;;;;13.50;99.90;;;;;;5174102;27;19921;-42
2023/05/05 07:02:22;;;;;;;;;;;13.50;99.90;;;;;;5168280;27;20326;-42
2023/05/05 07:04:47;;;;;;;;;;;13.50;99.90;;;;;;5174089;27;19974;-42
2023/05/05 07:07:13;;;;;;;;;;;13.50;99.90;;;;;;5174383;27;19913;-42
2023/05/05 07:09:40;;;;;;;;;;;13.40;99.90;;;;;;5173557;27;19914;-46
2023/05/05 07:12:05;;;;;;;;;;;13.40;99.90;;;;;;5174898;27;20380;-42
2023/05/05 07:14:31;;;;;;;;;;;13.40;99.90;;;;;;5172522;27;19914;-43
2023/05/05 07:16:56;;;;;;;;;;;13.40;99.90;;;;;;5165349;27;20432;-42
2023/05/05 07:19:22;;;;;;;;;;;13.40;99.90;;;;;;5173572;27;19915;-42
2023/05/05 07:21:47;;;;;;;;;;;13.40;99.90;;;;;;5167776;27;19911;-44
2023/05/05 07:24:13;;;;;;;;;;;13.50;99.90;;;;;;5170399;27;19918;-43
2023/05/05 07:26:38;;;;;;;;;;;13.50;99.90;;;;;;5167789;27;19925;-43
2023/05/05 07:29:05;;;;;;;;;;;13.60;99.90;;;;;;5173801;27;19907;-43
2023/05/05 07:31:31;;;;;;;;;;;13.60;99.90;;;;;;5172776;27;19915;-42
2023/05/05 07:33:56;;;;;;;;;;;13.70;99.90;;;;;;5173931;27;19907;-43
2023/05/05 07:36:22;;;;;;;;;;;13.70;99.90;;;;;;5172847;27;19915;-41
2023/05/05 07:38:48;;;;;;;;;;;13.70;99.90;;;;;;5172855;27;20254;-42
2023/05/05 07:41:13;;;;;;;;;;;13.80;99.90;;;;;;5172961;27;19918;-43
2023/05/05 07:43:41;;;;;;;;;;;13.90;99.90;;;;;;5166580;27;20319;-42
2023/05/05 07:46:07;;;;;;;;;;;14.00;99.90;;;;;;5161252;27;19910;-42
2023/05/05 07:48:33;;;;;;;;;;;14.00;99.90;;;;;;5166030;27;20373;-42
2023/05/05 07:50:58;;;;;;;;;;;14.10;99.90;;;;;;5171256;27;19923;-42
2023/05/05 07:53:24;;;;;;;;;;;14.10;99.90;;;;;;5173409;27;20372;-44
2023/05/05 07:55:49;;;;;;;;;;;14.20;99.90;;;;;;5174394;27;19918;-42
2023/05/05 07:58:15;;;;;;;;;;;14.30;99.90;;;;;;5173438;27;19907;-42
2023/05/05 08:00:42;;;;;;;;;;;14.30;99.90;;;;;;5174164;27;19907;-41
2023/05/05 08:03:08;;;;;;;;;;;14.40;99.90;;;;;;5168195;27;19918;-42
2023/05/05 08:05:33;;;;;;;;;;;14.50;99.90;;;;;;5173359;27;19910;-42
2023/05/05 08:07:59;;;;;;;;;;;14.50;99.90;;;;;;5173738;27;19911;-42
2023/05/05 08:10:24;;;;;;;;;;;14.60;99.90;;;;;;5174515;27;19935;-42
2023/05/05 08:12:50;;;;;;;;;;;14.70;99.90;;;;;;5172448;27;20387;-42
2023/05/05 08:15:16;;;;;;;;;;;14.70;99.90;;;;;;5173129;27;19955;-42
2023/05/05 08:17:48;;;;;;;;;;;14.80;99.90;;;;;;5175832;27;19914;-42
2023/05/05 08:20:14;;;;;;;;;;;14.90;99.90;;;;;;5170538;27;19911;-42
2023/05/05 08:22:41;;;;;;;;;;;15.00;99.90;;;;;;5172272;27;19950;-43
2023/05/05 08:25:07;;;;;;;;;;;15.00;99.90;;;;;;5179086;27;19932;-43
2023/05/05 08:27:34;;;;;;;;;;;15.10;99.90;;;;;;5177540;27;19911;-42
2023/05/05 08:30:00;;;;;;;;;;;15.20;99.90;;;;;;5169608;27;19919;-42
2023/05/05 08:32:25;;;;;;;;;;;15.30;99.90;;;;;;5161282;27;20334;-42
2023/05/05 08:34:51;;;;;;;;;;;15.40;99.90;;;;;;5158317;27;19956;-41
2023/05/05 08:37:17;;;;;;;;;;;15.50;99.90;;;;;;5155610;27;20433;-43
2023/05/05 08:39:43;;;;;;;;;;;15.60;99.90;;;;;;5155289;27;20010;-43
2023/05/05 08:42:08;;;;;;;;;;;15.70;99.90;;;;;;5163665;27;19958;-43
2023/05/05 08:44:34;;;;;;;;;;;15.90;99.90;;;;;;5178517;27;19914;-43
2023/05/05 08:47:00;;;;;;;;;;;16.00;99.90;;;;;;5170475;27;20389;-43
2023/05/05 08:49:28;;;;;;;;;;;16.10;99.90;;;;;;5157045;27;19915;-44
2023/05/05 08:51:54;;;;;;;;;;;16.20;99.90;;;;;;5157814;27;19992;-41
2023/05/05 08:54:21;;;;;;;;;;;16.30;99.90;;;;;;5178401;27;19943;-41
2023/05/05 08:56:49;;;;;;;;;;;16.40;99.90;;;;;;5177606;27;19930;-41
2023/05/05 08:59:15;;;;;;;;;;;16.60;99.90;;;;;;5178451;27;19948;-42
2023/05/05 09:01:40;;;;;;;;;;;16.60;99.90;;;;;;5167688;27;19966;-42
2023/05/05 09:04:07;;;;;;;;;;;16.80;99.90;;;;;;5164225;27;19913;-42
2023/05/05 09:06:33;;;;;;;;;;;16.90;99.90;;;;;;5177536;27;19918;-43
2023/05/05 09:08:59;;;;;;;;;;;17.10;99.90;;;;;;5172505;27;19918;-42
2023/05/05 09:11:25;;;;;;;;;;;17.20;99.90;;;;;;5173140;27;19930;-42
2023/05/05 09:13:51;;;;;;;;;;;17.30;99.90;;;;;;5159941;27;19914;-42
2023/05/05 09:16:16;;;;;;;;;;;17.50;99.90;;;;;;5156374;27;20339;-42
2023/05/05 09:18:42;;;;;;;;;;;17.60;99.90;;;;;;5164835;27;19911;-42
2023/05/05 09:21:20;;;;;;;;;;;17.70;99.90;;;;;;5165386;27;19966;-43
2023/05/05 09:24:05;;;;;;;;;;;17.70;99.90;;;;;;5167053;27;19998;-42
2023/05/05 09:26:34;;;;;;;;;;;17.80;99.90;;;;;;5177056;27;20372;-43
2023/05/05 09:29:02;;;;;;;;;;;18.00;99.90;;;;;;5176850;27;20315;-42
2023/05/05 09:31:31;;;;;;;;;;;18.10;99.90;;;;;;5176954;27;19915;-42
2023/05/05 09:33:59;;;;;;;;;;;18.10;99.90;;;;;;5175452;27;19995;-42
2023/05/05 09:36:44;;;;;;;;;;;18.10;99.90;;;;;;5177425;27;19911;-42
2023/05/05 09:39:10;;;;;;;;;;;18.30;99.90;;;;;;5160988;27;19918;-41
2023/05/05 09:41:36;;;;;;;;;;;18.30;99.90;;;;;;5157157;27;19911;-42
2023/05/05 09:44:01;;;;;;;;;;;18.40;99.90;;;;;;5164876;27;19922;-42
2023/05/05 09:46:27;;;;;;;;;;;18.60;99.90;;;;;;5165260;27;19915;-41
2023/05/05 09:48:52;;;;;;;;;;;18.80;99.90;;;;;;5162583;27;19911;-42
2023/05/05 09:51:27;;;;;;;;;;;19.00;99.90;;;;;;5165332;27;20005;-42
2023/05/05 09:53:52;;;;;;;;;;;19.10;99.90;;;;;;5166585;27;20373;-42
2023/05/05 09:56:18;;;;;;;;;;;19.40;99.90;;;;;;5163910;27;19959;-42
2023/05/05 09:58:44;;;;;;;;;;;19.50;99.90;;;;;;5169434;27;19911;-41
2023/05/05 10:01:21;;;;;;;;;;;19.60;99.90;;;;;;5164813;27;19911;-42
2023/05/05 10:03:52;;;;;;;;;;;19.60;99.90;;;;;;5168559;27;20275;-45
2023/05/05 10:06:18;;;;;;;;;;;19.70;99.90;;;;;;5171338;27;19911;-42
2023/05/05 10:08:43;;;;;;;;;;;19.80;99.90;;;;;;5176787;27;20409;-42
2023/05/05 10:11:09;;;;;;;;;;;19.80;99.90;;;;;;5176831;27;19915;-42
2023/05/05 10:13:36;;;;;;;;;;;19.90;99.90;;;;;;5175502;27;19959;-42
2023/05/05 10:16:02;;;;;;;;;;;20.00;99.90;;;;;;5156949;27;20305;-44
2023/05/05 10:18:30;;;;;;;;;;;19.90;99.90;;;;;;5158218;27;19935;-43
2023/05/05 10:20:57;;;;;;;;;;;19.90;99.90;;;;;;5158955;27;19931;-42
2023/05/05 10:23:23;;;;;;;;;;;20.10;99.90;;;;;;5160114;27;19911;-42
2023/05/05 10:25:52;;;;;;;;;;;20.10;99.90;;;;;;5159015;27;19918;-41
2023/05/05 10:28:21;;;;;;;;;;;20.20;99.90;;;;;;5169651;27;19987;-41
2023/05/05 10:30:48;;;;;;;;;;;20.20;99.90;;;;;;5176536;27;19926;-42
2023/05/05 10:33:20;;;;;;;;;;;20.00;99.90;;;;;;5170087;27;19933;-41
2023/05/05 10:35:48;;;;;;;;;;;20.00;99.90;;;;;;5174267;27;20365;-41
2023/05/05 10:38:15;;;;;;;;;;;20.10;99.90;;;;;;5173181;27;20284;-41
2023/05/05 10:40:44;;;;;;;;;;;20.20;99.90;;;;;;5173166;27;19911;-43
2023/05/05 10:43:10;;;;;;;;;;;20.40;99.90;;;;;;5173837;27;19907;-43
2023/05/05 10:45:36;;;;;;;;;;;20.50;99.90;;;;;;5173859;27;20292;-42
2023/05/05 10:48:03;;;;;;;;;;;20.60;99.90;;;;;;5172631;27;20420;-42
2023/05/05 10:50:29;;;;;;;;;;;20.50;99.90;;;;;;5173127;27;20317;-41
2023/05/05 10:52:54;;;;;;;;;;;20.40;99.90;;;;;;5175328;27;19914;-42
2023/05/05 10:55:26;;;;;;;;;;;20.40;99.90;;;;;;5173669;27;19910;-44
2023/05/05 10:57:52;;;;;;;;;;;20.40;99.90;;;;;;5176231;27;19914;-42
2023/05/05 11:00:41;;;;;;;;;;;20.30;99.90;;;;;;5176243;27;20294;-41
2023/05/05 11:03:15;;;;;;;;;;;20.30;99.90;;;;;;5161341;27;19923;-42
2023/05/05 11:05:59;;;;;;;;;;;20.40;99.90;;;;;;5170708;27;19915;-41
2023/05/05 11:08:25;;;;;;;;;;;20.60;99.90;;;;;;5161070;27;20073;-42
2023/05/05 11:10:51;;;;;;;;;;;20.70;99.90;;;;;;5154721;27;19957;-43
2023/05/05 11:13:17;;;;;;;;;;;20.60;99.90;;;;;;5161557;27;19936;-42
2023/05/05 11:15:42;;;;;;;;;;;20.60;99.90;;;;;;5167453;27;19910;-41
2023/05/05 11:18:27;;;;;;;;;;;20.60;99.90;;;;;;5172750;27;19910;-41
2023/05/05 11:20:58;;;;;;;;;;;20.60;99.90;;;;;;5173190;27;20013;-43
2023/05/05 11:23:24;;;;;;;;;;;20.60;99.90;;;;;;5173216;27;19907;-42
2023/05/05 11:25:50;;;;;;;;;;;20.80;99.90;;;;;;5173484;27;19925;-42
2023/05/05 11:28:17;;;;;;;;;;;20.90;99.90;;;;;;5174024;27;20034;-42
2023/05/05 11:30:57;;;;;;;;;;;21.10;99.90;;;;;;5173185;27;19970;-42
2023/05/05 11:33:27;;;;;;;;;;;21.20;99.90;;;;;;5172712;27;19926;-43
2023/05/05 11:35:56;;;;;;;;;;;21.30;99.90;;;;;;5173487;27;19907;-42
2023/05/05 11:38:25;;;;;;;;;;;21.30;99.90;;;;;;5172394;27;19998;-41
2023/05/05 11:40:56;;;;;;;;;;;21.30;99.90;;;;;;5174026;27;19915;-41
2023/05/05 11:43:22;;;;;;;;;;;21.20;99.90;;;;;;5163278;27;19937;-42
2023/05/05 11:45:47;;;;;;;;;;;21.20;99.90;;;;;;5174850;27;19911;-43
2023/05/05 11:48:25;;;;;;;;;;;21.20;99.90;;;;;;5164432;27;19911;-42
2023/05/05 11:50:51;;;;;;;;;;;21.10;99.90;;;;;;5155257;27;20038;-43
2023/05/05 11:53:18;;;;;;;;;;;21.00;99.10;;;;;;5167886;27;19914;-42
2023/05/05 11:55:43;;;;;;;;;;;21.00;99.60;;;;;;5158859;27;19912;-42
2023/05/05 11:58:18;;;;;;;;;;;21.00;97.80;;;;;;5168665;27;19917;-43
2023/05/05 12:00:43;;;;;;;;;;;21.00;97.20;;;;;;5161606;27;19911;-42
2023/05/05 12:03:09;;;;;;;;;;;20.90;94.60;;;;;;5169478;27;22151;-42
2023/05/05 12:05:34;;;;;;;;;;;20.90;97.00;;;;;;5173038;27;19964;-42
2023/05/05 12:08:00;;;;;;;;;;;20.80;97.00;;;;;;5162562;27;19945;-43
2023/05/05 12:10:26;;;;;;;;;;;20.70;95.40;;;;;;5156949;27;20018;-42
2023/05/05 12:12:51;;;;;;;;;;;20.70;96.90;;;;;;5164405;27;19961;-42
2023/05/05 12:15:26;;;;;;;;;;;20.60;98.40;;;;;;5167308;27;19907;-42
2023/05/05 12:17:51;;;;;;;;;;;20.60;99.60;;;;;;5158464;27;19939;-42
2023/05/05 12:20:17;;;;;;;;;;;20.50;99.90;;;;;;5157913;27;19961;-43
2023/05/05 12:22:43;;;;;;;;;;;20.50;99.70;;;;;;5164427;27;19911;-42
2023/05/05 12:25:09;;;;;;;;;;;20.50;99.90;;;;;;5173161;27;19934;-42
2023/05/05 12:27:34;;;;;;;;;;;20.40;99.90;;;;;;5157629;27;20235;-42
2023/05/05 12:30:10;;;;;;;;;;;20.40;99.80;;;;;;5158085;27;20261;-44
2023/05/05 12:32:35;;;;;;;;;;;20.40;99.90;;;;;;5159985;27;20058;-41
2023/05/05 12:35:02;;;;;;;;;;;20.30;99.90;;;;;;5175263;27;20001;-43
2023/05/05 12:37:28;;;;;;;;;;;20.30;99.90;;;;;;5171685;27;19911;-43
2023/05/05 12:39:56;;;;;;;;;;;20.30;99.90;;;;;;5176925;27;20213;-42
2023/05/05 12:42:22;;;;;;;;;;;20.20;99.90;;;;;;5169581;27;19910;-43
2023/05/05 12:44:47;;;;;;;;;;;20.10;99.90;;;;;;5169798;27;19912;-42
2023/05/05 12:47:13;;;;;;;;;;;20.10;99.90;;;;;;5177563;27;19907;-42
2023/05/05 12:49:46;;;;;;;;;;;20.10;99.90;;;;;;5178477;27;19914;-45
2023/05/05 12:52:13;;;;;;;;;;;20.00;99.90;;;;;;5178538;27;19907;-42
2023/05/05 12:54:55;;;;;;;;;;;19.90;99.90;;;;;;5177201;27;19907;-43
2023/05/05 12:57:21;;;;;;;;;;;19.70;99.90;;;;;;5170261;27;19915;-42
2023/05/05 12:59:46;;;;;;;;;;;19.60;99.90;;;;;;5167473;27;20247;-41
2023/05/05 13:02:12;;;;;;;;;;;19.50;99.90;;;;;;5156309;27;19907;-43
2023/05/05 13:04:51;;;;;;;;;;;19.40;99.90;;;;;;5172508;27;19963;-42
2023/05/05 13:07:18;;;;;;;;;;;19.40;99.90;;;;;;5178691;27;19910;-42
2023/05/05 13:09:44;;;;;;;;;;;19.30;99.90;;;;;;5177006;27;20011;-42
2023/05/05 13:12:13;;;;;;;;;;;19.20;99.90;;;;;;5177113;27;20349;-42
2023/05/05 13:14:39;;;;;;;;;;;19.00;99.90;;;;;;5176311;27;19918;-42
2023/05/05 13:17:05;;;;;;;;;;;18.90;99.90;;;;;;5176673;27;19915;-42
2023/05/05 13:19:30;;;;;;;;;;;18.80;99.90;;;;;;5178003;27;19918;-42
2023/05/05 13:21:56;;;;;;;;;;;18.30;99.90;;;;;;5177309;27;19906;-41
2023/05/05 13:24:22;;;;;;;;;;;17.80;99.90;;;;;;5177787;27;19907;-42
2023/05/05 13:26:48;;;;;;;;;;;17.40;99.90;;;;;;5177806;27;19914;-42
2023/05/05 13:29:15;;;;;;;;;;;16.90;99.90;;;;;;5177233;27;19907;-43
2023/05/05 13:31:40;;;;;;;;;;;16.50;99.90;;;;;;5177614;27;19922;-43
2023/05/05 13:34:06;;;;;;;;;;;16.20;99.90;;;;;;5177852;27;19907;-42
2023/05/05 13:36:31;;;;;;;;;;;15.90;99.90;;;;;;5176274;27;19922;-43
2023/05/05 13:38:57;;;;;;;;;;;15.70;99.90;;;;;;5176875;27;19906;-42
2023/05/05 13:41:22;;;;;;;;;;;15.30;99.90;;;;;;5177004;27;19907;-40
2023/05/05 13:43:48;;;;;;;;;;;15.00;99.90;;;;;;5170112;27;19952;-39
2023/05/05 13:46:13;;;;;;;;;;;14.70;99.90;;;;;;5167981;27;20372;-38
2023/05/05 13:48:39;;;;;;;;;;;14.40;99.90;;;;;;5175512;27;19952;-41
2023/05/05 13:51:05;;;;;;;;;;;14.20;99.90;;;;;;5164961;27;19919;-41
2023/05/05 13:53:30;;;;;;;;;;;14.00;99.90;;;;;;5171474;27;19915;-40
2023/05/05 13:55:57;;;;;;;;;;;13.80;99.90;;;;;;5156921;27;19911;-39
2023/05/05 13:58:23;;;;;;;;;;;13.60;99.90;;;;;;5164544;27;19914;-41
2023/05/05 14:00:48;;;;;;;;;;;13.50;99.90;;;;;;5163096;27;20410;-42
2023/05/05 14:03:13;;;;;;;;;;;13.40;99.90;;;;;;5159033;27;19911;-42
2023/05/05 14:05:41;;;;;;;;;;;13.30;99.90;;;;;;5155741;27;19943;-44
2023/05/05 14:08:07;;;;;;;;;;;13.30;99.90;;;;;;5160557;27;20258;-42
2023/05/05 14:10:33;;;;;;;;;;;13.30;99.90;;;;;;5171801;27;19922;-42
2023/05/05 14:12:58;;;;;;;;;;;13.30;99.90;;;;;;5175581;27;20001;-41
2023/05/05 14:15:24;;;;;;;;;;;13.20;99.90;;;;;;5171896;27;19911;-40